createdAt,value
2023-03-06T00:05:40.085Z,100068.13
2023-03-06T00:12:41.948Z,100062.66
2023-03-06T00:19:43.605Z,100056.22
2023-03-06T00:26:45.148Z,100048.91
2023-03-06T00:33:46.747Z,100046.63
2023-03-06T00:40:48.285Z,100036.69
2023-03-06T00:47:49.818Z,100026.56
2023-03-06T00:54:51.413Z,100005.34
2023-03-06T01:01:53.048Z,100007.34
2023-03-06T01:08:54.643Z,99977.59
2023-03-06T01:16:00.269Z,99968.41
2023-03-06T01:23:01.829Z,99960.19
2023-03-06T01:30:04.454Z,99945.81
2023-03-06T01:37:06.076Z,99926.22
2023-03-06T01:44:07.696Z,99913.50
2023-03-06T01:51:09.252Z,99901.06
2023-03-06T01:58:13.119Z,99889.66
2023-03-06T02:05:14.735Z,99889.03
2023-03-06T02:12:19.465Z,99875.34
2023-03-06T02:19:30.085Z,99873.84
2023-03-06T02:26:31.644Z,99861.00
2023-03-06T02:33:33.910Z,99852.06
2023-03-06T02:40:35.560Z,99840.38
2023-03-06T02:47:37.192Z,99836.06
2023-03-06T02:54:38.814Z,99834.13
2023-03-06T03:01:42.202Z,99831.69
2023-03-06T03:08:43.859Z,99828.72
2023-03-06T03:15:46.950Z,99821.63
2023-03-06T03:22:53.233Z,99819.34
2023-03-06T03:29:57.410Z,99816.31
2023-03-06T03:36:59.538Z,99806.78
2023-03-06T03:44:01.332Z,99817.38
2023-03-06T03:51:07.648Z,99800.50
2023-03-06T03:58:12.224Z,99802.81
2023-03-06T04:05:17.173Z,99809.19
2023-03-06T04:12:19.053Z,99814.91
2023-03-06T04:19:21.584Z,99825.66
2023-03-06T04:26:23.814Z,99828.31
2023-03-06T04:33:25.543Z,99835.97
2023-03-06T04:40:30.672Z,99832.38
2023-03-06T04:47:32.252Z,99839.00
2023-03-06T04:54:33.791Z,99841.44
2023-03-06T05:01:35.307Z,99839.97
2023-03-06T05:08:36.902Z,99840.97
2023-03-06T05:15:41.943Z,99843.06
2023-03-06T05:22:44.346Z,99850.19
2023-03-06T05:29:46.021Z,99845.44
2023-03-06T05:36:47.742Z,99862.22
2023-03-06T05:43:49.357Z,99861.94
2023-03-06T05:50:55.887Z,99865.69
2023-03-06T05:57:57.486Z,99864.84
2023-03-06T06:04:59.089Z,99863.22
2023-03-06T06:12:01.734Z,99871.66
2023-03-06T06:19:03.352Z,99868.00
2023-03-06T06:26:05.963Z,99868.31
2023-03-06T06:33:07.504Z,99868.91
2023-03-06T06:40:09.718Z,99876.78
2023-03-06T06:47:22.979Z,99876.78
2023-03-06T06:54:25.961Z,99881.75
2023-03-06T07:01:28.081Z,99881.16
2023-03-06T07:08:29.777Z,99887.31
2023-03-06T07:15:31.306Z,99889.50
2023-03-06T07:22:44.811Z,99885.72
2023-03-06T07:29:52.160Z,99893.66
2023-03-06T07:36:53.710Z,99890.75
2023-03-06T07:43:55.232Z,99884.63
2023-03-06T07:51:04.406Z,99893.34
2023-03-06T07:58:06.197Z,99895.97
2023-03-06T08:05:08.700Z,99899.94
2023-03-06T08:12:10.392Z,99897.53
2023-03-06T08:19:11.978Z,99888.44
2023-03-06T08:26:18.211Z,99885.88
2023-03-06T08:33:19.748Z,99890.91
2023-03-06T08:40:23.113Z,99900.41
2023-03-06T08:47:24.755Z,99897.66
2023-03-06T08:54:26.279Z,99912.22
2023-03-06T09:01:33.781Z,99906.59
2023-03-06T09:08:35.349Z,99905.56
2023-03-06T09:15:36.905Z,99916.69
2023-03-06T09:22:38.662Z,99916.03
2023-03-06T09:29:40.190Z,99904.47
2023-03-06T09:36:55.325Z,99910.69
2023-03-06T09:44:25.979Z,99919.16
2023-03-06T09:51:33.583Z,99914.03
2023-03-06T09:58:39.469Z,99909.44
2023-03-06T10:05:52.545Z,99916.44
2023-03-06T10:13:06.498Z,99916.38
2023-03-06T10:20:26.130Z,99918.72
2023-03-06T10:27:45.349Z,99910.34
2023-03-06T10:34:46.868Z,99921.38
2023-03-06T10:41:48.841Z,99929.16
2023-03-06T10:48:57.896Z,99915.13
2023-03-06T10:55:59.822Z,99917.59
2023-03-06T11:03:18.898Z,99916.34
2023-03-06T11:10:20.588Z,99920.19
2023-03-06T11:17:29.112Z,99917.50
2023-03-06T11:24:36.763Z,99913.84
2023-03-06T11:31:42.636Z,99906.16
2023-03-06T11:38:51.786Z,99896.91
2023-03-06T11:46:00.340Z,99904.28
2023-03-06T11:53:15.705Z,99894.94
2023-03-06T12:00:29.349Z,99886.28
2023-03-06T12:07:49.167Z,99882.03
2023-03-06T12:14:53.587Z,99871.91
2023-03-06T12:22:23.147Z,99875.47
2023-03-06T12:29:49.654Z,99871.97
2023-03-06T12:37:16.757Z,99869.41
2023-03-06T12:44:24.544Z,99870.66
2023-03-06T12:51:26.356Z,99862.63
2023-03-06T12:58:31.027Z,99865.47
2023-03-06T13:05:34.540Z,99865.88
2023-03-06T13:13:01.532Z,99850.69
2023-03-06T13:20:15.336Z,99851.06
2023-03-06T13:27:16.843Z,99828.16
2023-03-06T13:35:03.118Z,99834.56
2023-03-06T13:42:06.968Z,99830.38
2023-03-06T13:49:08.390Z,99823.38
2023-03-06T13:56:25.121Z,99837.56
2023-03-06T14:03:49.530Z,99832.69
2023-03-06T14:11:19.534Z,99836.63
2023-03-06T14:18:40.015Z,99834.06
2023-03-06T14:25:42.682Z,99832.00
2023-03-06T14:32:44.372Z,99824.56
2023-03-06T14:39:46.776Z,99817.19
2023-03-06T14:47:14.569Z,99813.16
2023-03-06T14:54:21.555Z,99811.94
2023-03-06T15:01:36.675Z,99815.34
2023-03-06T15:08:39.240Z,99811.81
2023-03-06T15:15:40.859Z,99812.66
2023-03-06T15:22:42.460Z,99825.34
2023-03-06T15:29:44.054Z,99822.50
2023-03-06T15:36:56.018Z,99823.16
2023-03-06T15:43:58.037Z,99816.09
2023-03-06T15:50:59.792Z,99809.88
2023-03-06T15:58:02.116Z,99820.50
2023-03-06T16:05:13.951Z,99812.38
2023-03-06T16:12:17.283Z,99803.13
2023-03-06T16:19:28.198Z,99810.16
2023-03-06T16:26:31.826Z,99811.16
2023-03-06T16:33:33.439Z,99807.59
2023-03-06T16:40:40.881Z,99806.28
2023-03-06T16:47:43.182Z,99804.91
2023-03-06T16:54:44.894Z,99810.00
2023-03-06T17:01:46.489Z,99817.00
2023-03-06T17:08:48.427Z,99823.88
2023-03-06T17:15:56.307Z,99833.25
2023-03-06T17:22:57.997Z,99832.22
2023-03-06T17:29:59.677Z,99831.59
2023-03-06T17:37:01.439Z,99846.03
2023-03-06T17:44:03.137Z,99851.78
2023-03-06T17:51:04.844Z,99860.59
2023-03-06T17:58:06.527Z,99858.16
2023-03-06T18:05:08.734Z,99860.44
2023-03-06T18:12:10.400Z,99864.97
2023-03-06T18:19:11.976Z,99852.41
2023-03-06T18:26:18.514Z,99866.63
2023-03-06T18:33:20.156Z,99866.50
2023-03-06T18:40:23.890Z,99866.56
2023-03-06T18:47:26.380Z,99863.31
2023-03-06T18:54:28.482Z,99864.66
2023-03-06T19:01:31.203Z,99860.59
2023-03-06T19:08:32.975Z,99857.53
2023-03-06T19:15:34.761Z,99867.31
2023-03-06T19:22:36.731Z,99861.47
2023-03-06T19:29:38.482Z,99857.56
2023-03-06T19:36:40.807Z,99852.22
2023-03-06T19:43:42.795Z,99845.03
2023-03-06T19:50:44.324Z,99847.53
2023-03-06T19:57:45.860Z,99846.75
2023-03-06T20:04:47.437Z,99847.91
2023-03-06T20:11:48.969Z,99841.97
2023-03-06T20:18:50.491Z,99840.25
2023-03-06T20:25:52.042Z,99843.97
2023-03-06T20:32:54.789Z,99834.50
2023-03-06T20:39:56.317Z,99833.81
2023-03-06T20:46:57.943Z,99826.94
2023-03-06T20:53:59.864Z,99813.88
2023-03-06T21:01:02.462Z,99811.00
2023-03-06T21:08:04.271Z,99803.25
2023-03-06T21:15:06.382Z,99798.09
2023-03-06T21:22:07.987Z,99794.16
2023-03-06T21:29:09.888Z,99778.53
2023-03-06T21:36:11.411Z,99776.16
2023-03-06T21:43:13.212Z,99771.22
2023-03-06T21:50:14.856Z,99775.72
2023-03-06T21:57:16.437Z,99771.38
2023-03-06T22:04:18.057Z,99769.19
2023-03-06T22:11:20.406Z,99761.19
2023-03-06T22:18:22.009Z,99752.44
2023-03-06T22:25:23.534Z,99748.28
2023-03-06T22:32:25.198Z,99738.13
2023-03-06T22:39:26.967Z,99723.28
2023-03-06T22:46:28.658Z,99718.63
2023-03-06T22:53:30.284Z,99709.06
2023-03-06T23:00:31.900Z,99694.19
2023-03-06T23:07:33.433Z,99683.63
2023-03-06T23:14:37.914Z,99668.94
2023-03-06T23:21:58.187Z,99674.97
2023-03-06T23:29:18.431Z,99670.25
2023-03-06T23:36:19.997Z,99668.94
2023-03-06T23:43:21.560Z,99660.97
2023-03-06T23:50:24.384Z,99646.03
2023-03-06T23:57:25.944Z,99649.25
